Time;durP1;ratioP1;P1;durP2;ratioP2;P2;SDS_P1;SDS_P2;PMS_P1;PMS_P2;Temp;Humidity;BMP_temperature;BMP_pressure;BME280_temperature;BME280_humidity;BME280_pressure;Samples;Min_cycle;Max_cycle;Signal;HPM_P1;HPM_P2
2022/05/20 00:00:36;;;;;;;7.07;4.50;;;26.80;99.90;;;;;;4132920;28;20054;-66
2022/05/20 00:02:48;;;;;;;7.18;4.45;;;26.90;99.90;;;;;;4141402;28;20105;-66
2022/05/20 00:05:10;;;;;;;5.25;4.07;;;26.90;99.90;;;;;;4139482;28;20108;-66
2022/05/20 00:07:21;;;;;;;5.05;3.70;;;26.90;99.90;;;;;;4137588;28;20054;-66
2022/05/20 00:09:30;;;;;;;6.13;3.42;;;27.00;99.90;;;;;;4138130;28;20045;-66
2022/05/20 00:11:46;;;;;;;4.45;3.33;;;26.90;99.90;;;;;;4136797;28;20881;-65
2022/05/20 00:14:06;;;;;;;4.30;3.15;;;27.00;99.90;;;;;;4136390;28;20057;-66
2022/05/20 00:16:15;;;;;;;4.78;3.60;;;27.00;99.90;;;;;;4123020;28;20042;-66
2022/05/20 00:18:41;;;;;;;5.60;3.30;;;27.00;99.90;;;;;;4137308;28;20084;-66
2022/05/20 00:21:05;;;;;;;4.20;2.90;;;27.00;99.90;;;;;;4122625;28;20046;-66
2022/05/20 00:23:17;;;;;;;5.15;2.70;;;27.10;99.90;;;;;;4140241;28;20045;-66
2022/05/20 00:28:15;;;;;;;5.80;2.60;;;27.10;99.90;;;;;;4136979;28;20050;-66
2022/05/20 00:30:28;;;;;;;4.70;2.13;;;27.10;99.90;;;;;;4140659;28;20504;-65
2022/05/20 00:32:40;;;;;;;6.18;2.63;;;27.10;99.90;;;;;;4138652;28;20100;-65
2022/05/20 00:35:02;;;;;;;;;;;27.10;99.90;;;;;;4138128;28;20088;-65
2022/05/20 00:37:13;;;;;;;8.15;3.00;;;27.20;99.90;;;;;;4136579;28;19933;-65
2022/05/20 00:39:29;;;;;;;4.90;2.92;;;27.20;99.90;;;;;;4136244;28;20493;-66
2022/05/20 00:41:40;;;;;;;3.40;2.20;;;27.20;99.90;;;;;;4137959;28;20088;-66
2022/05/20 00:43:46;;;;;;;3.67;2.38;;;27.30;99.90;;;;;;4135831;28;20507;-66
2022/05/20 00:45:53;;;;;;;4.10;2.10;;;27.30;99.90;;;;;;4138173;28;20049;-66
2022/05/20 00:48:18;;;;;;;3.28;2.35;;;27.30;99.90;;;;;;4140011;28;20054;-66
2022/05/20 00:50:41;;;;;;;6.28;2.55;;;27.30;99.90;;;;;;4135245;28;20041;-65
2022/05/20 00:52:48;;;;;;;3.25;2.10;;;27.40;99.90;;;;;;4161906;28;20111;-66
2022/05/20 00:54:56;;;;;;;4.97;2.55;;;27.30;99.90;;;;;;4150363;28;20108;-66
2022/05/20 00:57:18;;;;;;;2.58;2.33;;;27.40;99.90;;;;;;4136779;28;20054;-66
2022/05/20 00:59:29;;;;;;;3.47;2.22;;;27.50;99.90;;;;;;4136196;28;20044;-66
2022/05/20 01:01:49;;;;;;;5.22;2.60;;;27.50;99.90;;;;;;4136308;28;20166;-66
2022/05/20 01:03:58;;;;;;;3.65;2.33;;;27.50;99.90;;;;;;4136393;28;20042;-66
2022/05/20 01:06:03;;;;;;;3.72;2.05;;;27.50;99.90;;;;;;4138140;28;20053;-66
2022/05/20 01:08:09;;;;;;;2.25;2.00;;;27.40;99.90;;;;;;4138154;28;20045;-66
2022/05/20 01:10:14;;;;;;;3.67;1.73;;;27.50;99.90;;;;;;4133038;28;20054;-66
2022/05/20 01:12:25;;;;;;;2.65;1.98;;;27.50;99.90;;;;;;4119080;28;20042;-66
2022/05/20 01:14:32;;;;;;;4.85;1.90;;;27.60;99.90;;;;;;4137081;28;20045;-66
2022/05/20 01:16:39;;;;;;;3.22;1.95;;;27.60;99.90;;;;;;4120318;28;20386;-65
2022/05/20 01:18:53;;;;;;;7.18;1.92;;;27.70;99.90;;;;;;4144947;28;20066;-66
2022/05/20 01:21:10;;;;;;;3.05;1.55;;;27.80;99.90;;;;;;4118399;28;20079;-66
2022/05/20 01:23:21;;;;;;;2.97;1.70;;;27.80;99.90;;;;;;4152866;28;20645;-66
2022/05/20 01:25:31;;;;;;;2.40;1.60;;;28.00;99.90;;;;;;4121201;28;20469;-66
2022/05/20 01:27:46;;;;;;;4.43;1.88;;;28.00;99.90;;;;;;4137878;28;20065;-66
2022/05/20 01:29:51;;;;;;;3.70;1.60;;;28.10;99.90;;;;;;4115588;28;20057;-66
2022/05/20 01:32:05;;;;;;;4.72;1.92;;;28.10;99.90;;;;;;4119130;28;20567;-66
2022/05/20 01:34:16;;;;;;;3.03;1.73;;;28.10;99.90;;;;;;4136025;28;20515;-64
2022/05/20 01:36:33;;;;;;;4.25;1.75;;;28.20;99.90;;;;;;4136155;28;20053;-66
2022/05/20 01:38:42;;;;;;;3.15;1.40;;;28.20;99.90;;;;;;4136048;28;20042;-65
2022/05/20 01:41:00;;;;;;;3.90;1.63;;;28.30;99.90;;;;;;4120021;28;20064;-66
2022/05/20 01:43:11;;;;;;;4.22;1.70;;;28.40;99.90;;;;;;4138645;28;20057;-66
2022/05/20 01:45:49;;;;;;;3.05;1.65;;;28.40;99.90;;;;;;4135363;28;20099;-65
2022/05/20 01:48:10;;;;;;;2.40;1.85;;;28.50;99.90;;;;;;4137926;28;20058;-65
2022/05/20 01:50:27;;;;;;;2.70;1.50;;;28.50;99.90;;;;;;4122838;28;20058;-65
2022/05/20 01:53:01;;;;;;;5.05;1.65;;;28.50;99.90;;;;;;4149650;28;20056;-65
2022/05/20 01:55:21;;;;;;;2.33;1.80;;;28.60;99.90;;;;;;4133531;28;20050;-65
2022/05/20 01:57:42;;;;;;;4.65;1.73;;;28.60;99.90;;;;;;4137232;28;20042;-65
2022/05/20 01:59:56;;;;;;;4.45;1.77;;;28.60;99.90;;;;;;4122422;28;20568;-66
2022/05/20 02:02:11;;;;;;;2.45;1.70;;;28.60;99.90;;;;;;4107049;28;20109;-66
2022/05/20 02:04:43;;;;;;;3.10;2.10;;;28.50;99.90;;;;;;4124678;28;20046;-65
2022/05/20 02:07:01;;;;;;;2.47;1.60;;;28.60;99.90;;;;;;4134597;28;20050;-65
2022/05/20 02:09:29;;;;;;;4.05;2.00;;;28.60;99.90;;;;;;4122085;28;20872;-65
2022/05/20 02:11:47;;;;;;;6.40;2.03;;;28.70;99.90;;;;;;4136515;28;20046;-65
2022/05/20 02:14:14;;;;;;;3.60;1.90;;;28.80;99.90;;;;;;4138419;28;20110;-66
2022/05/20 02:16:33;;;;;;;5.93;2.40;;;28.80;99.90;;;;;;4137596;28;20053;-65
2022/05/20 02:18:51;;;;;;;4.60;1.90;;;28.90;99.90;;;;;;4137252;28;20390;-65
2022/05/20 02:21:03;;;;;;;4.50;1.50;;;29.00;99.90;;;;;;4145477;28;20491;-65
2022/05/20 02:23:28;;;;;;;3.60;1.90;;;29.00;99.90;;;;;;4138106;28;20136;-65
2022/05/20 02:25:36;;;;;;;3.35;1.90;;;29.10;99.90;;;;;;4137694;28;20168;-65
2022/05/20 02:27:54;;;;;;;2.88;1.63;;;29.00;99.90;;;;;;4122164;28;20141;-66
2022/05/20 02:30:15;;;;;;;3.97;1.65;;;28.90;99.90;;;;;;4121738;28;20057;-64
2022/05/20 02:32:25;;;;;;;3.17;1.85;;;29.00;99.90;;;;;;4137839;28;20060;-65
2022/05/20 02:34:34;;;;;;;3.33;1.65;;;29.10;99.90;;;;;;4152867;28;20049;-65
2022/05/20 02:36:40;;;;;;;4.45;1.60;;;29.20;99.90;;;;;;4138411;28;20073;-65
2022/05/20 02:38:45;;;;;;;4.50;1.60;;;29.30;99.90;;;;;;4137932;28;20081;-66
2022/05/20 02:40:52;;;;;;;3.20;1.60;;;29.40;99.90;;;;;;4136596;28;20058;-65
2022/05/20 02:42:56;;;;;;;2.78;1.55;;;29.50;99.90;;;;;;4153199;28;20080;-65
2022/05/20 02:45:03;;;;;;;3.85;1.40;;;29.50;99.90;;;;;;4136657;28;20939;-65
2022/05/20 02:47:10;;;;;;;1.77;1.30;;;29.60;99.90;;;;;;4136925;28;20078;-65
2022/05/20 02:49:14;;;;;;;2.53;1.45;;;29.50;99.90;;;;;;4137993;28;20714;-66
2022/05/20 02:51:19;;;;;;;2.97;1.63;;;29.50;99.90;;;;;;4120282;28;20513;-65
2022/05/20 02:53:24;;;;;;;3.10;1.52;;;29.40;99.90;;;;;;4137686;28;20037;-65
2022/05/20 02:55:28;;;;;;;2.78;1.58;;;29.40;99.90;;;;;;4137177;28;20752;-65
2022/05/20 02:57:33;;;;;;;2.50;1.42;;;29.40;99.90;;;;;;4136829;28;20042;-65
2022/05/20 03:04:13;;;;;;;2.45;1.40;;;29.50;99.90;;;;;;4139917;28;20046;-66
2022/05/20 03:06:17;;;;;;;2.65;1.55;;;29.60;99.90;;;;;;4139904;28;20129;-65
2022/05/20 03:08:22;;;;;;;3.53;1.33;;;29.80;99.90;;;;;;4140681;28;20504;-66
2022/05/20 03:10:27;;;;;;;2.28;1.42;;;29.80;99.90;;;;;;4140280;28;20538;-65
2022/05/20 03:12:35;;;;;;;3.90;1.40;;;29.90;99.90;;;;;;4138495;28;20053;-65
2022/05/20 03:14:40;;;;;;;3.63;1.65;;;30.00;99.90;;;;;;4138585;28;20088;-64
2022/05/20 03:16:45;;;;;;;3.88;1.50;;;29.90;99.90;;;;;;4138596;28;20073;-65
2022/05/20 03:18:50;;;;;;;3.50;1.33;;;29.90;99.90;;;;;;4118783;28;20969;-65
2022/05/20 03:20:55;;;;;;;3.85;1.85;;;30.00;99.90;;;;;;4134691;28;20060;-65
2022/05/20 03:23:00;;;;;;;3.05;1.33;;;30.00;99.90;;;;;;4138754;28;20107;-65
2022/05/20 03:25:05;;;;;;;5.50;1.40;;;30.10;99.90;;;;;;4138322;28;20045;-64
2022/05/20 03:27:10;;;;;;;1.90;1.40;;;30.10;99.90;;;;;;4139990;28;20049;-64
2022/05/20 03:29:15;;;;;;;2.63;1.20;;;30.20;99.90;;;;;;4135424;28;20038;-64
2022/05/20 03:31:20;;;;;;;4.05;1.40;;;30.30;99.90;;;;;;4137414;28;20115;-65
2022/05/20 03:33:26;;;;;;;2.55;1.20;;;30.40;99.90;;;;;;4134891;28;20054;-64
2022/05/20 03:35:30;;;;;;;2.42;1.35;;;30.40;99.90;;;;;;4135771;28;20045;-65
2022/05/20 03:37:36;;;;;;;3.97;1.45;;;30.60;99.90;;;;;;4137760;28;20042;-65
2022/05/20 03:39:40;;;;;;;4.22;1.27;;;30.70;99.90;;;;;;4136951;28;20108;-65
2022/05/20 03:41:47;;;;;;;2.70;1.17;;;30.70;99.90;;;;;;4137007;28;20037;-64
2022/05/20 03:43:51;;;;;;;3.05;1.25;;;30.70;99.90;;;;;;4106537;28;20066;-65
2022/05/20 03:45:56;;;;;;;3.10;1.23;;;30.80;99.90;;;;;;4138923;28;20053;-65
2022/05/20 03:48:03;;;;;;;3.08;1.55;;;31.00;99.90;;;;;;4140619;28;20140;-65
2022/05/20 03:50:08;;;;;;;2.67;1.30;;;30.80;99.90;;;;;;4138243;28;20479;-65
2022/05/20 03:52:13;;;;;;;2.75;1.30;;;30.80;99.90;;;;;;4140885;28;21688;-64
2022/05/20 03:54:19;;;;;;;2.28;1.15;;;30.70;99.90;;;;;;4142626;28;20175;-65
2022/05/20 03:56:24;;;;;;;2.60;1.20;;;30.80;99.90;;;;;;4145957;28;20145;-65
2022/05/20 03:58:29;;;;;;;2.40;1.40;;;30.90;99.90;;;;;;4142806;28;20548;-64
2022/05/20 04:03:00;;;;;;;3.53;1.40;;;30.90;99.90;;;;;;4141439;28;20095;-66
2022/05/20 04:05:05;;;;;;;4.88;1.30;;;30.80;99.90;;;;;;4142381;28;20556;-65
2022/05/20 04:07:12;;;;;;;1.65;1.13;;;30.70;99.90;;;;;;4141519;28;20501;-65
2022/05/20 04:09:17;;;;;;;2.85;1.58;;;30.70;99.90;;;;;;4148115;28;20058;-66
2022/05/20 04:11:25;;;;;;;3.42;1.25;;;30.80;99.90;;;;;;4137820;28;20077;-65
2022/05/20 04:13:30;;;;;;;4.93;1.50;;;31.00;99.90;;;;;;4123065;28;20074;-66
2022/05/20 04:15:34;;;;;;;4.53;1.45;;;31.30;99.90;;;;;;4140503;28;20049;-66
2022/05/20 04:17:40;;;;;;;3.90;1.33;;;31.40;99.90;;;;;;4142119;28;20053;-67
2022/05/20 04:19:45;;;;;;;2.75;1.20;;;31.60;99.90;;;;;;4140261;28;20074;-66
2022/05/20 04:21:51;;;;;;;3.65;1.88;;;31.50;99.90;;;;;;4130340;28;20603;-66
2022/05/20 04:23:55;;;;;;;2.25;1.38;;;31.70;99.90;;;;;;4125007;28;20525;-66
2022/05/20 04:26:00;;;;;;;2.60;1.20;;;31.70;99.90;;;;;;4141482;28;20773;-66
2022/05/20 04:28:06;;;;;;;4.25;1.30;;;31.70;99.90;;;;;;4138623;28;20072;-67
2022/05/20 04:30:13;;;;;;;3.47;1.48;;;31.50;99.90;;;;;;4141436;28;20054;-67
2022/05/20 04:32:18;;;;;;;1.85;0.80;;;31.20;99.90;;;;;;4138974;28;20061;-66
2022/05/20 04:34:24;;;;;;;3.22;1.20;;;31.00;99.90;;;;;;4141531;28;20493;-67
2022/05/20 04:36:30;;;;;;;2.08;1.25;;;30.90;99.90;;;;;;4141177;28;20050;-67
2022/05/20 04:38:36;;;;;;;3.50;1.00;;;30.80;99.90;;;;;;4140195;28;20041;-69
2022/05/20 04:40:41;;;;;;;3.03;1.15;;;30.70;99.90;;;;;;4139889;28;20045;-67
2022/05/20 04:47:22;;;;;;;2.15;1.20;;;30.40;99.90;;;;;;4141203;28;20049;-66
2022/05/20 04:49:31;;;;;;;2.17;1.25;;;30.40;99.90;;;;;;4140034;28;20405;-64
2022/05/20 04:51:38;;;;;;;2.30;1.10;;;30.30;99.90;;;;;;4137904;28;20100;-66
2022/05/20 04:56:00;;;;;;;6.53;2.13;;;30.20;99.90;;;;;;4126741;28;20042;-64
2022/05/20 04:58:05;;;;;;;4.18;1.35;;;30.20;99.90;;;;;;4145686;28;20069;-66
2022/05/20 05:00:27;;;;;;;5.53;1.70;;;30.10;99.90;;;;;;4135153;28;20081;-66
2022/05/20 05:02:32;;;;;;;6.28;1.83;;;30.00;99.90;;;;;;4124758;28;20548;-65
2022/05/20 05:04:37;;;;;;;5.32;1.80;;;30.10;99.90;;;;;;4138973;28;20046;-65
2022/05/20 05:06:43;;;;;;;6.18;1.80;;;30.20;99.90;;;;;;4142417;28;20072;-65
2022/05/20 05:08:48;;;;;;;2.47;1.45;;;30.40;99.90;;;;;;4108858;28;20457;-64
2022/05/20 05:10:53;;;;;;;3.60;1.67;;;30.60;99.90;;;;;;4139908;28;20053;-66
2022/05/20 05:12:58;;;;;;;2.00;1.50;;;30.90;99.90;;;;;;4139571;28;20046;-66
2022/05/20 05:15:05;;;;;;;4.22;1.50;;;31.20;99.90;;;;;;4138874;28;20054;-66
2022/05/20 05:17:12;;;;;;;3.35;1.80;;;31.50;99.90;;;;;;4132013;28;20050;-66
2022/05/20 05:19:17;;;;;;;4.93;1.55;;;31.70;99.90;;;;;;4147571;28;20037;-66
2022/05/20 05:21:21;;;;;;;2.83;1.30;;;31.80;99.90;;;;;;4140355;28;20514;-66
2022/05/20 05:23:27;;;;;;;2.50;1.38;;;32.00;99.90;;;;;;4121922;28;20590;-66
2022/05/20 05:25:33;;;;;;;2.55;1.05;;;32.10;99.90;;;;;;4139377;28;20517;-66
2022/05/20 05:27:39;;;;;;;3.33;1.30;;;32.20;99.90;;;;;;4125437;28;20046;-67
2022/05/20 05:29:44;;;;;;;5.97;1.40;;;32.20;99.90;;;;;;4139271;28;20077;-66
2022/05/20 05:31:49;;;;;;;4.75;1.48;;;32.20;99.90;;;;;;4139379;28;20053;-66
2022/05/20 05:33:54;;;;;;;2.85;1.42;;;32.20;99.90;;;;;;4122666;28;20149;-66
2022/05/20 05:35:59;;;;;;;2.05;1.35;;;32.10;99.90;;;;;;4138231;28;21125;-66
2022/05/20 05:38:04;;;;;;;3.53;1.20;;;32.00;99.90;;;;;;4141065;28;20425;-64
2022/05/20 05:40:11;;;;;;;3.45;1.33;;;31.90;99.90;;;;;;4139067;28;20037;-66
2022/05/20 05:42:16;;;;;;;3.20;1.58;;;31.80;99.90;;;;;;4137538;28;20046;-67
2022/05/20 05:44:21;;;;;;;2.05;1.30;;;31.70;99.90;;;;;;4139030;28;20058;-66
2022/05/20 05:46:26;;;;;;;2.45;1.38;;;31.60;99.90;;;;;;4139596;28;20160;-66
2022/05/20 05:48:31;;;;;;;4.28;1.55;;;31.50;99.90;;;;;;4120148;28;20046;-66
2022/05/20 05:50:39;;;;;;;3.17;1.42;;;31.40;99.90;;;;;;4138448;28;20104;-66
2022/05/20 05:52:43;;;;;;;3.53;1.38;;;31.30;99.90;;;;;;4105756;28;20054;-66
2022/05/20 05:54:48;;;;;;;2.38;1.20;;;31.30;99.90;;;;;;4155600;28;20042;-65
2022/05/20 05:56:54;;;;;;;2.58;1.20;;;31.30;99.90;;;;;;4121461;28;20082;-66
2022/05/20 05:58:58;;;;;;;2.13;0.90;;;31.40;99.90;;;;;;4141739;28;20458;-66
2022/05/20 06:01:04;;;;;;;1.95;1.20;;;31.40;99.90;;;;;;4140597;28;20453;-66
2022/05/20 06:03:09;;;;;;;3.63;1.10;;;31.40;99.90;;;;;;4138295;28;20409;-66
2022/05/20 06:05:14;;;;;;;6.00;1.10;;;31.30;99.90;;;;;;4123449;28;20946;-66
2022/05/20 06:07:21;;;;;;;3.55;1.13;;;31.30;99.90;;;;;;4138716;28;20049;-66
2022/05/20 06:09:25;;;;;;;1.95;1.23;;;31.30;99.90;;;;;;4138546;28;20413;-66
2022/05/20 06:11:32;;;;;;;2.20;1.15;;;31.30;99.90;;;;;;4140642;28;20050;-66
2022/05/20 06:13:37;;;;;;;3.30;1.38;;;31.30;99.90;;;;;;4140636;28;20137;-66
2022/05/20 06:15:41;;;;;;;2.10;1.00;;;31.60;99.90;;;;;;4116318;28;20047;-66
2022/05/20 06:17:47;;;;;;;4.75;1.52;;;31.80;99.90;;;;;;4130001;28;20448;-66
2022/05/20 06:19:52;;;;;;;2.17;1.17;;;32.10;99.90;;;;;;4139188;28;20038;-66
2022/05/20 06:21:57;;;;;;;3.78;1.42;;;32.20;99.90;;;;;;4139830;28;20115;-65
2022/05/20 06:24:02;;;;;;;1.83;1.08;;;32.10;99.90;;;;;;4138605;28;20053;-66
2022/05/20 06:26:07;;;;;;;6.15;2.08;;;32.00;99.90;;;;;;4138879;28;20046;-66
2022/05/20 06:28:20;;;;;;;2.83;1.10;;;31.90;99.90;;;;;;4137583;28;20653;-66
2022/05/20 06:30:26;;;;;;;1.98;1.27;;;31.80;99.90;;;;;;4133233;28;20052;-66
2022/05/20 06:32:30;;;;;;;3.22;1.45;;;31.70;99.90;;;;;;4139448;28;20161;-66
2022/05/20 06:41:32;;;;;;;3.08;1.10;;;31.80;99.90;;;;;;4142215;28;20568;-65
2022/05/20 06:43:38;;;;;;;3.53;1.15;;;31.70;99.90;;;;;;4141589;28;20643;-65
2022/05/20 06:45:45;;;;;;;2.30;1.35;;;31.70;99.90;;;;;;4130634;28;20416;-65
2022/05/20 06:48:10;;;;;;;5.13;1.40;;;32.00;99.90;;;;;;4123389;28;20050;-65
2022/05/20 06:50:15;;;;;;;4.07;1.50;;;32.20;99.90;;;;;;4108408;28;20093;-64
2022/05/20 06:52:20;;;;;;;2.25;1.25;;;32.40;99.90;;;;;;4133228;28;20042;-64
2022/05/20 06:54:41;;;;;;;3.25;1.33;;;32.50;99.90;;;;;;4121892;28;20049;-66
2022/05/20 06:56:46;;;;;;;3.85;1.20;;;32.60;99.90;;;;;;4091793;28;20098;-65
2022/05/20 06:58:52;;;;;;;2.17;1.13;;;32.60;99.90;;;;;;4122644;28;20042;-64
2022/05/20 07:00:56;;;;;;;2.17;1.10;;;32.50;99.90;;;;;;4121348;28;20050;-64
2022/05/20 07:03:01;;;;;;;2.38;1.17;;;32.70;99.90;;;;;;4121192;28;20535;-64
2022/05/20 07:05:09;;;;;;;4.32;1.30;;;32.90;99.90;;;;;;4123073;28;20203;-65
2022/05/20 07:07:13;;;;;;;5.40;1.20;;;32.80;99.90;;;;;;4120926;28;20093;-65
2022/05/20 07:09:18;;;;;;;2.42;1.27;;;32.60;99.90;;;;;;4124102;28;20050;-64
2022/05/20 07:11:25;;;;;;;2.47;1.20;;;32.40;99.90;;;;;;4134523;28;20057;-65
2022/05/20 07:13:30;;;;;;;2.72;1.20;;;32.50;99.90;;;;;;4107041;28;20054;-65
2022/05/20 07:15:35;;;;;;;3.33;1.30;;;32.30;99.90;;;;;;4123776;28;20047;-65
2022/05/20 07:17:39;;;;;;;4.25;1.27;;;32.20;99.90;;;;;;4119139;28;20752;-65
2022/05/20 07:19:45;;;;;;;2.25;1.23;;;32.20;99.90;;;;;;4149344;28;20096;-66
2022/05/20 07:21:49;;;;;;;2.63;1.27;;;32.10;99.90;;;;;;4155717;28;20049;-66
2022/05/20 07:23:55;;;;;;;2.97;1.30;;;31.90;99.90;;;;;;4141836;28;20104;-66
2022/05/20 07:26:01;;;;;;;5.57;2.15;;;31.70;99.90;;;;;;4141542;28;20050;-66
2022/05/20 07:28:05;;;;;;;5.95;2.00;;;31.30;99.90;;;;;;4139305;28;20054;-65
2022/05/20 07:30:11;;;;;;;10.65;2.78;;;31.00;99.90;;;;;;4135425;28;20042;-65
2022/05/20 07:32:16;;;;;;;6.90;2.30;;;30.80;99.90;;;;;;4138723;28;20137;-66
2022/05/20 07:34:22;;;;;;;7.70;2.67;;;30.50;99.90;;;;;;4140274;28;20479;-65
2022/05/20 07:36:27;;;;;;;8.18;2.83;;;30.40;99.90;;;;;;4140354;28;20046;-66
2022/05/20 07:38:33;;;;;;;10.25;2.70;;;30.40;99.90;;;;;;4140935;28;20061;-65
2022/05/20 07:40:38;;;;;;;6.13;2.30;;;30.20;99.90;;;;;;4143127;28;20056;-65
2022/05/20 07:42:49;;;;;;;5.45;2.40;;;30.00;99.90;;;;;;4140515;28;20146;-65
2022/05/20 07:44:54;;;;;;;5.15;2.00;;;30.00;99.90;;;;;;4137748;28;20073;-65
2022/05/20 07:46:59;;;;;;;5.07;2.35;;;30.00;99.90;;;;;;4137941;28;20052;-65
2022/05/20 07:49:05;;;;;;;6.63;2.08;;;29.80;99.90;;;;;;4139876;28;20045;-66
2022/05/20 07:51:15;;;;;;;4.32;2.15;;;29.70;99.90;;;;;;4136700;28;20144;-65
2022/05/20 07:53:20;;;;;;;5.00;2.55;;;30.00;99.90;;;;;;4140698;28;20045;-66
2022/05/20 07:55:25;;;;;;;4.72;1.80;;;29.90;99.90;;;;;;4139283;28;20038;-65
2022/05/20 07:57:30;;;;;;;4.55;1.80;;;29.70;99.90;;;;;;4138923;28;20046;-65
2022/05/20 07:59:50;;;;;;;3.40;2.03;;;29.90;99.90;;;;;;4141843;28;20048;-65
2022/05/20 08:01:54;;;;;;;4.72;1.98;;;30.20;99.90;;;;;;4139399;28;20088;-66
2022/05/20 08:06:24;;;;;;;5.07;1.98;;;30.90;99.90;;;;;;4151313;28;20142;-65
2022/05/20 08:08:31;;;;;;;4.40;2.13;;;31.20;99.90;;;;;;4139473;28;20777;-65
2022/05/20 08:10:37;;;;;;;2.83;1.80;;;31.30;99.90;;;;;;4138489;28;20544;-65
2022/05/20 08:12:42;;;;;;;3.08;1.40;;;31.40;99.90;;;;;;4139731;28;20038;-65
2022/05/20 08:14:48;;;;;;;3.95;1.52;;;31.50;99.90;;;;;;4137870;28;20053;-65
2022/05/20 08:16:53;;;;;;;2.63;1.40;;;31.70;99.90;;;;;;4125397;28;20053;-66
2022/05/20 08:18:58;;;;;;;3.13;1.40;;;31.80;99.90;;;;;;4138034;28;20476;-65
2022/05/20 08:21:03;;;;;;;3.75;1.70;;;31.80;99.90;;;;;;4138842;28;20038;-64
2022/05/20 08:23:15;;;;;;;2.45;1.40;;;31.90;99.90;;;;;;4111137;28;20079;-66
2022/05/20 08:25:25;;;;;;;4.00;1.40;;;31.90;99.90;;;;;;4137771;28;20045;-65
2022/05/20 08:27:31;;;;;;;4.60;1.50;;;31.70;99.90;;;;;;4139475;28;20080;-65
2022/05/20 08:29:36;;;;;;;3.88;1.98;;;31.70;99.90;;;;;;4137885;28;20057;-65
2022/05/20 08:31:42;;;;;;;7.57;1.90;;;31.50;99.90;;;;;;4139429;28;20049;-66
2022/05/20 08:33:47;;;;;;;4.65;1.92;;;31.40;99.90;;;;;;4140565;28;20045;-65
2022/05/20 08:35:52;;;;;;;3.88;1.90;;;31.30;99.90;;;;;;4138303;28;20052;-65
2022/05/20 08:37:56;;;;;;;3.00;1.67;;;31.30;99.90;;;;;;4139015;28;20060;-65
2022/05/20 08:40:03;;;;;;;3.55;1.85;;;31.30;99.90;;;;;;4140297;28;20061;-65
2022/05/20 08:42:19;;;;;;;2.88;1.60;;;31.30;99.90;;;;;;4136470;28;20681;-66
2022/05/20 08:44:24;;;;;;;4.43;1.65;;;31.40;99.90;;;;;;4121572;28;20133;-66
2022/05/20 08:46:30;;;;;;;2.75;1.50;;;31.40;99.90;;;;;;4119753;28;20524;-66
2022/05/20 08:48:35;;;;;;;3.60;1.70;;;31.40;99.90;;;;;;4154724;28;20046;-66
2022/05/20 08:50:49;;;;;;;2.47;1.40;;;31.40;99.90;;;;;;4152685;28;20037;-66
2022/05/20 08:52:55;;;;;;;3.85;1.50;;;31.30;99.90;;;;;;4136965;28;20740;-66
2022/05/20 08:55:00;;;;;;;4.10;1.85;;;31.30;99.90;;;;;;4152820;28;20107;-66
2022/05/20 08:57:28;;;;;;;4.15;1.92;;;31.20;99.90;;;;;;4152593;28;20511;-66
2022/05/20 08:59:34;;;;;;;3.17;1.80;;;31.10;99.90;;;;;;4152844;28;20061;-66
2022/05/20 09:01:45;;;;;;;5.35;1.90;;;31.00;99.90;;;;;;4161550;28;20144;-66
2022/05/20 09:03:50;;;;;;;3.17;1.60;;;31.00;99.90;;;;;;4154002;28;20037;-65
2022/05/20 09:06:10;;;;;;;2.42;1.60;;;31.00;99.90;;;;;;4157381;28;20451;-67
2022/05/20 09:08:19;;;;;;;3.80;1.60;;;31.00;99.90;;;;;;4148367;28;20077;-66
2022/05/20 09:10:32;;;;;;;4.07;1.60;;;31.00;99.90;;;;;;4154928;28;20389;-66
2022/05/20 09:12:39;;;;;;;3.13;2.30;;;30.90;99.90;;;;;;4154607;28;20555;-66
2022/05/20 09:17:23;;;;;;;3.67;2.17;;;30.80;99.90;;;;;;4139821;28;20041;-67
2022/05/20 09:19:28;;;;;;;5.50;2.45;;;30.70;99.90;;;;;;4138881;28;20050;-65
2022/05/20 09:21:38;;;;;;;4.50;2.22;;;30.60;99.90;;;;;;4123895;28;20680;-65
2022/05/20 09:23:58;;;;;;;2.65;1.70;;;30.50;99.90;;;;;;4138581;28;20157;-65
2022/05/20 09:26:08;;;;;;;3.97;1.98;;;30.50;99.90;;;;;;4141620;28;20049;-66
2022/05/20 09:28:15;;;;;;;3.38;1.92;;;30.60;99.90;;;;;;4139388;28;20073;-66
2022/05/20 09:30:23;;;;;;;3.28;1.83;;;30.60;99.90;;;;;;4139922;28;20084;-66
2022/05/20 09:33:08;;;;;;;4.25;2.10;;;30.60;99.90;;;;;;4127414;28;20093;-65
2022/05/20 09:35:19;;;;;;;3.40;1.77;;;30.70;99.90;;;;;;4132299;28;20460;-64
2022/05/20 09:37:26;;;;;;;3.70;1.73;;;30.70;99.90;;;;;;4141611;28;20825;-65
2022/05/20 09:39:41;;;;;;;3.35;1.23;;;30.60;99.90;;;;;;4121408;28;20042;-64
2022/05/20 09:41:47;;;;;;;3.53;1.63;;;30.60;99.90;;;;;;4124760;28;20050;-65
2022/05/20 09:43:58;;;;;;;2.97;1.42;;;30.60;99.90;;;;;;4137739;28;20045;-65
2022/05/20 09:46:04;;;;;;;3.85;1.80;;;30.60;99.90;;;;;;4136660;28;20061;-65
2022/05/20 09:48:09;;;;;;;2.28;1.50;;;30.60;99.90;;;;;;4089933;28;20055;-65
2022/05/20 09:50:22;;;;;;;3.38;1.45;;;30.60;99.90;;;;;;4071749;29;20067;-66
2022/05/20 09:52:51;;;;;;;4.38;1.70;;;30.60;99.90;;;;;;4087402;28;20047;-66
2022/05/20 09:55:05;;;;;;;4.15;1.77;;;30.60;99.90;;;;;;4087660;28;20051;-66
2022/05/20 09:57:43;;;;;;;4.00;1.23;;;30.70;99.90;;;;;;4079354;28;20055;-66
2022/05/20 10:00:04;;;;;;;1.95;0.90;;;30.80;99.90;;;;;;4081459;29;20250;-65
2022/05/20 10:02:28;;;;;;;2.03;0.90;;;30.70;99.90;;;;;;4079806;28;20095;-66
2022/05/20 10:04:45;;;;;;;1.90;0.85;;;30.60;99.90;;;;;;4097799;28;20425;-66
2022/05/20 10:06:52;;;;;;;1.58;0.80;;;30.50;99.90;;;;;;4098705;28;20046;-66
2022/05/20 10:08:56;;;;;;;2.45;0.95;;;30.50;99.90;;;;;;4091786;28;20498;-66
2022/05/20 10:11:09;;;;;;;2.60;1.10;;;30.40;99.90;;;;;;4103466;28;20057;-65
2022/05/20 10:13:26;;;;;;;3.03;0.90;;;30.30;99.90;;;;;;4107868;28;20038;-65
2022/05/20 10:15:42;;;;;;;2.33;1.20;;;30.30;99.90;;;;;;4106832;28;20137;-66
2022/05/20 10:17:53;;;;;;;3.65;1.08;;;30.20;99.90;;;;;;4107298;28;20047;-65
2022/05/20 10:20:12;;;;;;;2.92;1.30;;;30.10;99.90;;;;;;4128263;28;20070;-66
2022/05/20 10:22:26;;;;;;;2.72;1.23;;;30.00;99.90;;;;;;4138239;28;20050;-67
2022/05/20 10:24:38;;;;;;;3.28;1.30;;;29.90;99.90;;;;;;4154962;28;20497;-67
2022/05/20 10:26:58;;;;;;;3.35;1.08;;;29.80;99.90;;;;;;4145627;28;20046;-66
2022/05/20 10:34:16;;;;;;;6.28;1.40;;;29.60;99.90;;;;;;4140110;28;20053;-67
2022/05/20 10:36:53;;;;;;;10.02;2.10;;;29.60;99.90;;;;;;4141096;28;20046;-65
2022/05/20 10:39:12;;;;;;;7.90;1.35;;;29.50;99.90;;;;;;4139259;28;20161;-65
2022/05/20 10:41:43;;;;;;;3.72;1.25;;;29.50;99.90;;;;;;4142409;28;20523;-66
2022/05/20 10:48:53;;;;;;;6.35;2.92;;;29.40;99.90;;;;;;4140942;28;20165;-66
2022/05/20 10:51:10;;;;;;;5.57;3.70;;;29.40;99.90;;;;;;4139939;28;20111;-66
2022/05/20 10:53:28;;;;;;;7.57;4.97;;;29.30;99.90;;;;;;4140050;28;20624;-67
2022/05/20 10:55:53;;;;;;;7.63;5.00;;;29.30;99.90;;;;;;4139613;28;20250;-66
2022/05/20 10:58:32;;;;;;;6.50;4.22;;;29.20;99.90;;;;;;4139719;28;20088;-66
2022/05/20 11:00:50;;;;;;;5.07;3.47;;;29.20;99.90;;;;;;4123949;28;20422;-66
2022/05/20 11:03:04;;;;;;;5.10;2.67;;;29.10;99.90;;;;;;4140131;28;20046;-66
2022/05/20 11:05:33;;;;;;;3.90;1.95;;;29.20;99.90;;;;;;4140962;28;20100;-66
2022/05/20 11:08:02;;;;;;;3.75;2.00;;;29.10;99.90;;;;;;4139872;28;20463;-66
2022/05/20 11:10:26;;;;;;;2.30;1.20;;;29.00;99.90;;;;;;4140595;28;20396;-66
2022/05/20 11:12:48;;;;;;;2.13;1.20;;;29.00;99.90;;;;;;4140488;28;20567;-66
2022/05/20 11:15:03;;;;;;;6.35;1.70;;;29.00;99.90;;;;;;4140752;28;20574;-67
2022/05/20 11:17:21;;;;;;;;;;;28.90;99.90;;;;;;4142824;28;20385;-66
2022/05/20 11:19:41;;;;;;;4.70;2.15;;;28.90;99.90;;;;;;4141337;28;20015;-64
2022/05/20 11:22:17;;;;;;;5.45;1.77;;;28.90;99.90;;;;;;4139167;28;20413;-65
2022/05/20 11:24:26;;;;;;;3.90;1.48;;;28.80;99.90;;;;;;4140874;28;20987;-65
2022/05/20 11:26:43;;;;;;;2.83;1.60;;;28.80;99.90;;;;;;4139977;28;20042;-66
2022/05/20 11:29:03;;;;;;;3.22;1.50;;;28.70;99.90;;;;;;4141270;28;20084;-65
2022/05/20 11:31:35;;;;;;;2.00;1.15;;;28.60;99.90;;;;;;4140981;28;20053;-65
2022/05/20 11:34:03;;;;;;;4.13;1.35;;;28.70;99.90;;;;;;4140979;28;20141;-65
2022/05/20 11:36:15;;;;;;;3.53;1.40;;;28.70;99.90;;;;;;4155772;28;20492;-65
2022/05/20 11:38:40;;;;;;;4.37;2.60;;;28.60;99.90;;;;;;4123432;28;20045;-65
2022/05/20 11:41:09;;;;;;;3.70;2.08;;;28.60;99.90;;;;;;4140949;28;20614;-66
2022/05/20 11:43:29;;;;;;;3.25;2.13;;;28.60;99.90;;;;;;4140422;28;20096;-64
2022/05/20 11:45:52;;;;;;;3.60;2.50;;;28.60;99.90;;;;;;4141449;28;20057;-65
2022/05/20 11:48:25;;;;;;;7.78;4.22;;;28.50;99.90;;;;;;4139671;28;20148;-66
2022/05/20 11:50:33;;;;;;;6.40;3.20;;;28.50;99.90;;;;;;4138309;28;20112;-65
2022/05/20 11:52:43;;;;;;;7.30;3.60;;;28.50;99.90;;;;;;4140349;28;20050;-65
2022/05/20 11:55:00;;;;;;;7.00;3.08;;;28.50;99.90;;;;;;4140239;28;20141;-65
2022/05/20 11:57:13;;;;;;;7.05;3.45;;;28.50;99.90;;;;;;4153821;28;20111;-66
2022/05/20 11:59:41;;;;;;;4.10;2.70;;;28.50;99.90;;;;;;4120634;28;20517;-65